createdAt,value
2018-03-26T00:01:15.806Z,67.60
2018-03-26T00:03:44.697Z,67.40
2018-03-26T00:06:13.666Z,67.70
2018-03-26T00:08:42.585Z,67.70
2018-03-26T00:11:10.685Z,67.60
2018-03-26T00:13:38.882Z,67.80
2018-03-26T00:16:07.872Z,69.00
2018-03-26T00:18:36.891Z,69.40
2018-03-26T00:21:05.795Z,70.00
2018-03-26T00:23:33.934Z,70.00
2018-03-26T00:26:02.857Z,71.10
2018-03-26T00:28:30.993Z,71.10
2018-03-26T00:30:59.918Z,72.00
2018-03-26T00:33:28.060Z,71.30
2018-03-26T00:35:56.971Z,71.20
2018-03-26T00:38:25.145Z,71.20
2018-03-26T00:40:54.257Z,71.10
2018-03-26T00:43:22.397Z,71.10
2018-03-26T00:45:50.694Z,71.00
2018-03-26T00:48:18.804Z,71.00
2018-03-26T00:50:46.940Z,70.70
2018-03-26T00:53:27.026Z,70.70
2018-03-26T00:55:55.141Z,70.80
2018-03-26T00:58:24.366Z,70.90
2018-03-26T01:00:52.464Z,70.90
2018-03-26T01:03:20.672Z,71.20
2018-03-26T01:05:49.583Z,71.70
2018-03-26T01:08:17.718Z,71.70
2018-03-26T01:10:45.946Z,71.70
2018-03-26T01:13:14.076Z,71.70
2018-03-26T01:15:42.977Z,71.80
2018-03-26T01:18:11.174Z,71.80
2018-03-26T01:20:39.347Z,72.10
2018-03-26T01:23:07.452Z,72.50
2018-03-26T01:25:35.652Z,73.40
2018-03-26T01:28:04.540Z,72.80
2018-03-26T01:30:33.432Z,73.00
2018-03-26T01:33:02.459Z,72.90
2018-03-26T01:35:31.433Z,73.00
2018-03-26T01:38:00.348Z,73.00
2018-03-26T01:40:28.468Z,73.10
2018-03-26T01:42:57.415Z,73.40
2018-03-26T01:45:25.543Z,73.30
2018-03-26T01:47:54.443Z,73.00
2018-03-26T01:50:23.513Z,73.40
2018-03-26T01:52:52.425Z,73.30
2018-03-26T01:55:20.544Z,73.30
2018-03-26T01:57:48.793Z,73.10
2018-03-26T02:00:16.961Z,73.00
2018-03-26T02:02:45.844Z,72.60
2018-03-26T02:05:14.008Z,72.60
2018-03-26T02:07:42.160Z,72.80
2018-03-26T02:10:11.530Z,72.60
2018-03-26T02:12:39.781Z,72.50
2018-03-26T02:15:07.943Z,72.40
2018-03-26T02:17:36.805Z,72.60
2018-03-26T02:20:05.136Z,72.60
2018-03-26T02:22:33.382Z,72.50
2018-03-26T02:25:01.490Z,73.00
2018-03-26T02:27:29.614Z,72.80
2018-03-26T02:29:57.800Z,72.60
2018-03-26T02:32:25.967Z,73.10
2018-03-26T02:34:54.830Z,73.00
2018-03-26T02:37:23.850Z,73.10
2018-03-26T02:39:52.024Z,73.10
2018-03-26T02:42:20.135Z,73.00
2018-03-26T02:44:49.809Z,72.80
2018-03-26T02:47:17.973Z,72.70
2018-03-26T02:49:47.478Z,72.70
2018-03-26T02:52:16.368Z,72.30
2018-03-26T02:54:44.497Z,72.30
2018-03-26T02:57:13.415Z,71.50
2018-03-26T02:59:41.562Z,71.60
2018-03-26T03:02:10.553Z,71.50
2018-03-26T03:04:39.481Z,71.60
2018-03-26T03:07:07.587Z,71.40
2018-03-26T03:09:35.901Z,71.40
2018-03-26T03:12:04.074Z,71.50
2018-03-26T03:14:32.234Z,71.90
2018-03-26T03:17:01.228Z,72.20
2018-03-26T03:19:30.131Z,72.20
2018-03-26T03:21:58.247Z,72.10
2018-03-26T03:24:26.499Z,72.20
2018-03-26T03:26:54.632Z,72.40
2018-03-26T03:29:23.698Z,71.90
2018-03-26T03:31:51.943Z,72.20
2018-03-26T03:34:20.078Z,72.30
2018-03-26T03:36:49.066Z,72.40
2018-03-26T03:39:17.959Z,72.30
2018-03-26T03:41:46.829Z,72.60
2018-03-26T03:44:14.977Z,72.50
2018-03-26T03:46:43.123Z,72.90
2018-03-26T03:49:11.264Z,73.10
2018-03-26T03:51:40.151Z,73.30
2018-03-26T03:54:09.148Z,73.10
2018-03-26T03:56:38.156Z,73.00
2018-03-26T03:59:06.316Z,73.00
2018-03-26T04:01:34.521Z,72.90
2018-03-26T04:04:02.619Z,73.10
2018-03-26T04:06:30.828Z,72.90
2018-03-26T04:08:59.727Z,72.90
2018-03-26T04:11:28.692Z,72.80
2018-03-26T04:13:56.830Z,72.80
2018-03-26T04:16:24.949Z,73.00
2018-03-26T04:18:53.846Z,72.80
2018-03-26T04:21:22.961Z,72.80
2018-03-26T04:23:51.837Z,72.80
2018-03-26T04:26:20.025Z,72.70
2018-03-26T04:28:49.018Z,73.40
2018-03-26T04:31:17.156Z,73.30
2018-03-26T04:33:46.144Z,73.90
2018-03-26T04:36:15.070Z,73.90
2018-03-26T04:38:43.934Z,73.90
2018-03-26T04:41:12.140Z,73.90
2018-03-26T04:43:40.260Z,74.00
2018-03-26T04:46:08.579Z,74.00
2018-03-26T04:48:37.600Z,74.20
2018-03-26T04:51:05.678Z,74.20
2018-03-26T04:53:33.820Z,74.60
2018-03-26T04:56:01.940Z,74.40
2018-03-26T04:58:30.159Z,74.50
2018-03-26T05:00:59.012Z,75.20
2018-03-26T05:03:42.745Z,74.90
2018-03-26T05:06:11.800Z,74.80
2018-03-26T05:08:39.905Z,74.70
2018-03-26T05:11:08.048Z,75.00
2018-03-26T05:13:36.164Z,75.40
2018-03-26T05:16:05.092Z,75.50
2018-03-26T05:18:33.203Z,75.40
2018-03-26T05:21:01.344Z,75.40
2018-03-26T05:23:29.500Z,75.50
2018-03-26T05:25:57.633Z,75.80
2018-03-26T05:28:27.336Z,74.90
2018-03-26T05:30:55.557Z,74.90
2018-03-26T05:33:23.671Z,74.70
2018-03-26T05:35:51.933Z,75.00
2018-03-26T05:38:20.237Z,75.00
2018-03-26T05:40:49.160Z,74.80
2018-03-26T05:43:18.053Z,74.50
2018-03-26T05:45:46.192Z,74.40
2018-03-26T05:48:15.111Z,74.50
2018-03-26T05:50:43.224Z,74.50
2018-03-26T05:53:11.429Z,74.30
2018-03-26T05:55:40.404Z,73.60
2018-03-26T05:58:09.334Z,73.40
2018-03-26T06:00:38.201Z,73.10
2018-03-26T06:03:07.216Z,73.20
2018-03-26T06:05:36.086Z,73.20
2018-03-26T06:08:05.406Z,73.20
2018-03-26T06:10:33.562Z,73.10
2018-03-26T06:13:01.697Z,73.50
2018-03-26T06:15:29.932Z,73.60
2018-03-26T06:17:58.095Z,73.80
2018-03-26T06:20:26.212Z,73.70
2018-03-26T06:22:54.344Z,73.80
2018-03-26T06:25:22.497Z,74.00
2018-03-26T06:27:50.658Z,73.90
2018-03-26T06:30:19.574Z,73.70
2018-03-26T06:32:47.742Z,73.70
2018-03-26T06:35:15.856Z,73.30
2018-03-26T06:37:55.783Z,73.30
2018-03-26T06:40:23.933Z,73.20
2018-03-26T06:42:52.938Z,73.00
2018-03-26T06:45:21.127Z,73.00
2018-03-26T06:47:49.270Z,72.80
2018-03-26T06:50:18.161Z,72.50
2018-03-26T06:52:46.301Z,72.50
2018-03-26T06:55:15.322Z,72.00
2018-03-26T06:57:43.457Z,72.00
2018-03-26T07:00:12.358Z,71.60
2018-03-26T07:02:41.252Z,71.30
2018-03-26T07:05:10.136Z,71.20
2018-03-26T07:07:39.034Z,71.00
2018-03-26T07:10:07.953Z,71.20
2018-03-26T07:12:36.116Z,71.20
2018-03-26T07:15:04.285Z,71.20
2018-03-26T07:17:33.174Z,71.20
2018-03-26T07:20:02.077Z,71.10
2018-03-26T07:22:30.236Z,71.10
2018-03-26T07:24:59.200Z,71.20
2018-03-26T07:27:28.092Z,71.20
2018-03-26T07:29:56.995Z,70.40
2018-03-26T07:32:25.186Z,70.40
2018-03-26T07:34:53.350Z,69.70
2018-03-26T07:37:22.343Z,69.80
2018-03-26T07:39:50.619Z,69.80
2018-03-26T07:42:18.900Z,69.70
2018-03-26T07:44:47.001Z,69.90
2018-03-26T07:47:15.253Z,69.80
2018-03-26T07:49:43.379Z,69.80
2018-03-26T07:52:11.515Z,70.00
2018-03-26T07:54:39.654Z,69.50
2018-03-26T07:57:07.769Z,68.70
2018-03-26T07:59:35.972Z,68.20
2018-03-26T08:02:04.864Z,67.90
2018-03-26T08:04:33.876Z,68.10
2018-03-26T08:07:02.746Z,68.50
2018-03-26T08:09:30.870Z,68.50
2018-03-26T08:11:59.071Z,67.40
2018-03-26T08:14:28.194Z,66.80
2018-03-26T08:16:57.139Z,66.90
2018-03-26T08:19:25.950Z,66.40
2018-03-26T08:21:54.869Z,66.30
2018-03-26T08:24:23.008Z,66.30
2018-03-26T08:26:52.853Z,66.30
2018-03-26T08:29:21.730Z,66.60
2018-03-26T08:31:49.858Z,66.60
2018-03-26T08:34:17.986Z,66.70
2018-03-26T08:36:46.109Z,66.30
2018-03-26T08:39:15.047Z,66.30
2018-03-26T08:41:43.218Z,66.20
2018-03-26T08:44:12.432Z,66.40
2018-03-26T08:46:40.651Z,66.40
2018-03-26T08:49:09.545Z,65.70
2018-03-26T08:51:38.481Z,65.40
2018-03-26T08:54:07.873Z,65.40
2018-03-26T08:56:36.769Z,65.20
2018-03-26T08:59:05.005Z,65.20
2018-03-26T09:01:33.164Z,64.90
2018-03-26T09:04:01.390Z,64.90
2018-03-26T09:06:29.530Z,64.50
2018-03-26T09:08:57.727Z,63.90
2018-03-26T09:11:25.846Z,63.90
2018-03-26T09:13:53.998Z,64.00
2018-03-26T09:16:22.153Z,63.20
2018-03-26T09:18:50.286Z,62.70
2018-03-26T09:21:18.422Z,62.70
2018-03-26T09:23:46.545Z,61.80
2018-03-26T09:26:14.693Z,61.90
2018-03-26T09:28:43.634Z,60.70
2018-03-26T09:31:11.757Z,60.70
2018-03-26T09:33:40.218Z,60.80
2018-03-26T09:36:08.587Z,60.00
2018-03-26T09:38:36.723Z,59.10
2018-03-26T09:41:04.885Z,59.10
2018-03-26T09:43:33.031Z,59.00
2018-03-26T09:46:01.179Z,58.30
2018-03-26T09:48:29.402Z,58.10
2018-03-26T09:50:58.292Z,57.80
2018-03-26T09:53:26.521Z,57.80
2018-03-26T09:55:54.621Z,57.30
2018-03-26T09:58:23.545Z,56.10
2018-03-26T10:00:51.687Z,56.10
2018-03-26T10:03:19.870Z,56.20
2018-03-26T10:05:48.754Z,54.40
2018-03-26T10:08:16.897Z,54.30
2018-03-26T10:10:45.829Z,53.10
2018-03-26T10:13:13.956Z,53.10
2018-03-26T10:15:42.883Z,52.50
2018-03-26T10:18:11.062Z,52.50
2018-03-26T10:20:39.960Z,50.90
2018-03-26T10:23:08.181Z,51.50
2018-03-26T10:25:38.035Z,49.80
2018-03-26T10:28:06.199Z,49.80
2018-03-26T10:30:34.382Z,49.60
2018-03-26T10:33:02.544Z,48.40
2018-03-26T10:35:30.669Z,48.30
2018-03-26T10:37:59.606Z,48.00
2018-03-26T10:40:27.770Z,48.00
2018-03-26T10:42:55.951Z,48.60
2018-03-26T10:45:24.764Z,48.40
2018-03-26T10:47:52.918Z,48.40
2018-03-26T10:50:21.093Z,48.60
2018-03-26T10:52:49.357Z,48.90
2018-03-26T10:55:17.486Z,49.50
2018-03-26T10:57:45.714Z,47.80
2018-03-26T11:00:13.826Z,49.40
2018-03-26T11:02:41.984Z,48.10
2018-03-26T11:05:10.148Z,48.10
2018-03-26T11:07:38.393Z,47.60
2018-03-26T11:10:06.570Z,46.50
2018-03-26T11:12:34.735Z,48.60
2018-03-26T11:15:02.910Z,47.30
2018-03-26T11:17:31.085Z,47.60
2018-03-26T11:19:59.218Z,47.40
2018-03-26T11:22:28.122Z,49.70
2018-03-26T11:24:56.249Z,49.00
2018-03-26T11:27:24.424Z,49.40
2018-03-26T11:29:52.666Z,49.30
2018-03-26T11:32:20.934Z,49.20
2018-03-26T11:34:49.106Z,49.90
2018-03-26T11:37:18.098Z,48.80
2018-03-26T11:39:46.229Z,48.80
2018-03-26T11:42:15.365Z,48.90
2018-03-26T11:44:43.640Z,48.90
2018-03-26T11:47:11.811Z,49.60
2018-03-26T11:49:40.878Z,49.30
2018-03-26T11:52:08.955Z,49.30
2018-03-26T11:54:37.150Z,50.90
2018-03-26T11:57:05.262Z,51.90
2018-03-26T11:59:33.548Z,51.80
2018-03-26T12:02:01.627Z,52.20
2018-03-26T12:04:30.661Z,56.60
2018-03-26T12:06:58.794Z,56.40
2018-03-26T12:09:27.819Z,58.90
2018-03-26T12:11:56.713Z,58.90
2018-03-26T12:14:24.838Z,59.50
2018-03-26T12:16:52.992Z,59.80
2018-03-26T12:19:21.225Z,60.40
2018-03-26T12:21:50.116Z,61.70
2018-03-26T12:24:30.132Z,61.70
2018-03-26T12:26:59.169Z,62.10
2018-03-26T12:29:39.165Z,62.10
2018-03-26T12:32:07.305Z,61.60
2018-03-26T12:34:47.317Z,62.30
2018-03-26T12:37:15.466Z,62.60
2018-03-26T12:39:44.561Z,63.10
2018-03-26T12:42:12.703Z,63.10
2018-03-26T12:44:52.665Z,62.30
2018-03-26T12:47:20.895Z,62.50
2018-03-26T12:49:49.078Z,62.40
2018-03-26T12:52:29.191Z,62.30
2018-03-26T12:54:58.099Z,62.60
2018-03-26T12:57:38.063Z,62.60
2018-03-26T13:00:06.243Z,62.20
2018-03-26T13:02:34.395Z,62.50
2018-03-26T13:05:02.503Z,61.70
2018-03-26T13:07:31.560Z,61.80
2018-03-26T13:10:00.449Z,61.30
2018-03-26T13:12:28.596Z,61.30
2018-03-26T13:14:57.516Z,61.60
2018-03-26T13:17:25.794Z,61.60
2018-03-26T13:19:53.912Z,61.30
2018-03-26T13:22:23.559Z,60.70
2018-03-26T13:24:51.836Z,60.70
2018-03-26T13:27:20.831Z,61.70
2018-03-26T13:29:49.005Z,61.70
2018-03-26T13:32:17.145Z,61.30
2018-03-26T13:34:46.072Z,61.60
2018-03-26T13:37:14.226Z,61.60
2018-03-26T13:39:42.352Z,60.50
2018-03-26T13:42:10.492Z,60.70
2018-03-26T13:44:38.753Z,60.80
2018-03-26T13:47:07.039Z,60.80
2018-03-26T13:49:35.154Z,59.20
2018-03-26T13:52:03.309Z,57.20
2018-03-26T13:54:32.467Z,57.40
2018-03-26T13:57:00.577Z,57.70
2018-03-26T13:59:28.742Z,57.10
2018-03-26T14:01:56.904Z,57.20
2018-03-26T14:04:25.161Z,57.80
2018-03-26T14:06:53.297Z,57.50
2018-03-26T14:12:42.984Z,57.90
2018-03-26T14:15:23.790Z,58.10
2018-03-26T14:18:09.556Z,58.10
2018-03-26T14:20:38.484Z,58.00
2018-03-26T14:23:06.638Z,57.90
2018-03-26T14:25:34.765Z,58.10
2018-03-26T14:28:03.695Z,59.90
2018-03-26T14:30:32.610Z,58.90
2018-03-26T14:33:00.742Z,58.90
2018-03-26T14:35:43.775Z,59.20
2018-03-26T14:38:12.096Z,59.40
2018-03-26T14:40:40.244Z,59.30
2018-03-26T14:43:08.521Z,59.60
2018-03-26T14:45:37.383Z,61.20
2018-03-26T14:48:05.586Z,61.10
2018-03-26T14:50:33.746Z,60.60
2018-03-26T14:53:02.017Z,60.80
2018-03-26T14:55:30.191Z,60.60
2018-03-26T14:57:58.328Z,60.00
2018-03-26T15:00:27.342Z,61.50
2018-03-26T15:02:55.516Z,61.50
2018-03-26T15:05:23.730Z,61.90
2018-03-26T15:07:51.962Z,62.70
2018-03-26T15:10:20.076Z,61.50
2018-03-26T15:12:48.239Z,60.20
2018-03-26T15:15:16.485Z,60.50
2018-03-26T15:17:44.658Z,57.70
2018-03-26T15:20:12.925Z,57.20
2018-03-26T15:22:41.090Z,55.50
2018-03-26T15:25:09.245Z,54.40
2018-03-26T15:27:38.270Z,55.50
2018-03-26T15:30:06.433Z,55.50
2018-03-26T15:32:34.605Z,55.30
2018-03-26T15:35:02.737Z,56.10
2018-03-26T15:37:31.676Z,57.50
2018-03-26T15:39:59.811Z,57.50
2018-03-26T15:42:28.732Z,58.30
2018-03-26T15:44:56.901Z,58.30
2018-03-26T15:47:25.037Z,58.90
2018-03-26T15:49:53.173Z,59.30
2018-03-26T15:52:21.420Z,59.40
2018-03-26T15:54:49.590Z,59.90
2018-03-26T15:57:17.761Z,60.10
2018-03-26T15:59:45.939Z,60.20
2018-03-26T16:02:13.666Z,59.80
2018-03-26T16:04:41.771Z,59.60
2018-03-26T16:07:09.893Z,59.80
2018-03-26T16:09:39.549Z,60.80
2018-03-26T16:12:07.721Z,60.80
2018-03-26T16:14:36.629Z,61.30
2018-03-26T16:17:04.747Z,61.30
2018-03-26T16:19:33.647Z,61.90
2018-03-26T16:22:01.822Z,61.90
2018-03-26T16:24:29.999Z,62.10
2018-03-26T16:26:58.908Z,62.60
2018-03-26T16:29:27.182Z,62.50
2018-03-26T16:31:55.313Z,63.00
2018-03-26T16:34:24.227Z,63.50
2018-03-26T16:36:52.382Z,63.50
2018-03-26T16:39:22.132Z,64.50
2018-03-26T16:41:50.266Z,64.50
2018-03-26T16:44:18.402Z,65.00
2018-03-26T16:46:46.637Z,65.40
2018-03-26T16:49:14.874Z,66.60
2018-03-26T16:51:43.011Z,67.40
2018-03-26T16:54:11.190Z,68.10
2018-03-26T16:56:40.364Z,69.00
2018-03-26T16:59:08.516Z,69.60
2018-03-26T17:01:36.643Z,69.60
2018-03-26T17:04:04.799Z,70.30
2018-03-26T17:06:33.039Z,69.60
2018-03-26T17:09:01.939Z,69.80
2018-03-26T17:11:30.088Z,69.80
2018-03-26T17:13:58.993Z,70.00
2018-03-26T17:16:27.166Z,70.00
2018-03-26T17:18:55.309Z,70.20
2018-03-26T17:21:24.338Z,72.80
2018-03-26T17:23:52.562Z,72.80
2018-03-26T17:26:21.537Z,75.50
2018-03-26T17:28:49.699Z,75.50
2018-03-26T17:31:17.940Z,76.40
2018-03-26T17:33:46.107Z,77.20
2018-03-26T17:36:14.392Z,78.90
2018-03-26T17:38:42.578Z,78.30
2018-03-26T17:41:10.829Z,78.30
2018-03-26T17:43:38.989Z,79.20
2018-03-26T17:46:07.174Z,79.70
2018-03-26T17:48:35.415Z,80.00
2018-03-26T17:51:03.582Z,80.50
2018-03-26T17:53:32.512Z,81.30
2018-03-26T17:56:00.670Z,81.30
2018-03-26T17:58:28.853Z,81.30
2018-03-26T18:00:57.011Z,81.60
2018-03-26T18:03:25.943Z,81.40
2018-03-26T18:05:54.293Z,81.40
2018-03-26T18:08:22.466Z,81.70
2018-03-26T18:10:50.650Z,80.60
2018-03-26T18:13:18.765Z,80.90
2018-03-26T18:15:48.307Z,81.10
2018-03-26T18:18:16.585Z,81.10
2018-03-26T18:20:44.721Z,81.00
2018-03-26T18:23:13.686Z,81.60
2018-03-26T18:25:41.871Z,81.60
2018-03-26T18:28:10.027Z,81.80
2018-03-26T18:30:38.178Z,81.40
2018-03-26T18:33:06.336Z,80.80
2018-03-26T18:35:34.532Z,81.00
2018-03-26T18:38:02.649Z,80.90
2018-03-26T18:40:30.860Z,80.50
2018-03-26T18:42:59.831Z,80.50
2018-03-26T18:45:27.966Z,80.50
2018-03-26T18:47:56.181Z,80.70
2018-03-26T18:50:25.093Z,80.40
2018-03-26T18:52:53.257Z,80.40
2018-03-26T18:55:21.402Z,80.40
2018-03-26T18:57:49.576Z,80.60
2018-03-26T19:00:17.730Z,80.90
2018-03-26T19:02:46.681Z,81.30
2018-03-26T19:05:14.835Z,81.30
2018-03-26T19:07:43.003Z,80.90
2018-03-26T19:10:11.144Z,81.20
2018-03-26T19:12:39.360Z,80.80
2018-03-26T19:15:07.529Z,81.10
2018-03-26T19:17:35.713Z,81.30
2018-03-26T19:20:03.997Z,81.40
2018-03-26T19:22:32.338Z,82.20
2018-03-26T19:25:01.244Z,82.20
2018-03-26T19:27:29.401Z,82.20
2018-03-26T19:29:57.543Z,82.60
2018-03-26T19:32:26.466Z,83.00
2018-03-26T19:34:54.652Z,82.90
2018-03-26T19:37:22.807Z,83.10
2018-03-26T19:39:51.812Z,82.90
2018-03-26T19:42:20.096Z,82.80
2018-03-26T19:44:48.222Z,83.20
2018-03-26T19:47:17.240Z,83.40
2018-03-26T19:49:45.401Z,83.30
2018-03-26T19:52:14.480Z,82.70
2018-03-26T19:54:43.499Z,83.10
2018-03-26T19:57:11.640Z,83.10
2018-03-26T19:59:40.656Z,83.40
2018-03-26T20:02:08.847Z,83.30
2018-03-26T20:04:37.111Z,83.50
2018-03-26T20:07:05.347Z,83.40
2018-03-26T20:09:34.276Z,83.20
2018-03-26T20:12:02.542Z,83.10
2018-03-26T20:14:30.716Z,83.20
2018-03-26T20:16:58.987Z,83.40
2018-03-26T20:19:27.148Z,83.20
2018-03-26T20:21:55.347Z,82.60
2018-03-26T20:24:23.503Z,82.80
2018-03-26T20:26:51.650Z,82.60
2018-03-26T20:29:20.560Z,82.50
2018-03-26T20:31:48.714Z,82.40
2018-03-26T20:34:17.839Z,82.70
2018-03-26T20:36:46.107Z,82.60
2018-03-26T20:39:14.256Z,82.70
2018-03-26T20:41:43.208Z,83.10
2018-03-26T20:44:11.442Z,83.00
2018-03-26T20:46:39.717Z,82.90
2018-03-26T20:49:07.885Z,83.20
2018-03-26T20:51:36.027Z,83.00
2018-03-26T20:54:04.182Z,82.70
2018-03-26T20:56:32.508Z,82.60
2018-03-26T20:59:00.702Z,82.60
2018-03-26T21:01:28.963Z,82.50
2018-03-26T21:03:57.074Z,82.40
2018-03-26T21:06:25.818Z,82.10
2018-03-26T21:08:54.189Z,82.10
2018-03-26T21:11:22.383Z,82.50
2018-03-26T21:13:50.538Z,82.90
2018-03-26T21:16:18.660Z,83.00
2018-03-26T21:18:47.698Z,83.10
2018-03-26T21:21:15.867Z,83.10
2018-03-26T21:23:44.041Z,83.40
2018-03-26T21:26:12.176Z,83.40
2018-03-26T21:28:41.098Z,83.40
2018-03-26T21:31:09.246Z,83.40
2018-03-26T21:33:38.264Z,84.10
2018-03-26T21:36:07.150Z,83.50
2018-03-26T21:38:35.324Z,83.50
2018-03-26T21:41:04.218Z,83.80
2018-03-26T21:43:32.364Z,83.80
2018-03-26T21:46:01.286Z,83.70
2018-03-26T21:48:29.453Z,83.70
2018-03-26T21:50:57.619Z,83.70
2018-03-26T21:53:25.763Z,84.10
2018-03-26T21:55:54.750Z,84.30
2018-03-26T21:58:23.673Z,84.10
2018-03-26T22:00:51.946Z,84.70
2018-03-26T22:03:20.940Z,84.40
2018-03-26T22:05:49.938Z,84.20
2018-03-26T22:08:18.101Z,84.20
2018-03-26T22:10:46.972Z,84.40
2018-03-26T22:13:15.879Z,84.50
2018-03-26T22:15:44.770Z,84.50
2018-03-26T22:18:12.933Z,84.50
2018-03-26T22:20:41.126Z,84.50
2018-03-26T22:23:09.304Z,84.40
2018-03-26T22:25:37.451Z,84.10
2018-03-26T22:28:05.809Z,84.50
2018-03-26T22:30:34.010Z,84.70
2018-03-26T22:33:02.155Z,84.70
2018-03-26T22:35:31.092Z,84.90
2018-03-26T22:37:59.251Z,84.90
2018-03-26T22:40:27.384Z,85.10
2018-03-26T22:42:56.312Z,85.20
2018-03-26T22:45:24.434Z,85.20
2018-03-26T22:47:53.396Z,85.00
2018-03-26T22:50:21.640Z,84.90
2018-03-26T22:52:49.781Z,84.90
2018-03-26T22:55:17.914Z,84.90
2018-03-26T22:57:46.162Z,85.00
2018-03-26T23:00:14.276Z,85.20
2018-03-26T23:02:42.510Z,85.30
2018-03-26T23:05:10.652Z,85.30
2018-03-26T23:07:39.578Z,85.20
2018-03-26T23:10:08.288Z,85.20
2018-03-26T23:12:36.413Z,85.20
2018-03-26T23:15:04.553Z,85.10
2018-03-26T23:17:33.443Z,85.20
2018-03-26T23:20:02.359Z,85.20
2018-03-26T23:22:42.289Z,85.20
2018-03-26T23:25:10.421Z,85.20
2018-03-26T23:27:38.562Z,85.40
2018-03-26T23:30:06.716Z,85.60
2018-03-26T23:32:34.907Z,85.50
2018-03-26T23:35:03.053Z,85.50
2018-03-26T23:37:33.163Z,85.40
2018-03-26T23:40:01.276Z,85.40
2018-03-26T23:42:29.446Z,85.30
2018-03-26T23:44:57.608Z,85.40
2018-03-26T23:47:25.729Z,85.20
2018-03-26T23:49:53.839Z,85.20
2018-03-26T23:52:22.002Z,85.40
2018-03-26T23:54:51.011Z,85.90
2018-03-26T23:57:19.119Z,85.90
2018-03-26T23:59:47.269Z,86.10
